sensor_id;sensor_type;location;lat;lon;timestamp;pressure;altitude;pressure_sealevel;temperature;humidity
74633;BME280;63139;52.018;8.552;2022-11-15T00:02:11;99987.56;;;9.87;76.07
74633;BME280;63139;52.018;8.552;2022-11-15T00:04:57;99980.94;;;9.91;76.14
74633;BME280;63139;52.018;8.552;2022-11-15T00:07:43;99983.41;;;9.93;75.29
74633;BME280;63139;52.018;8.552;2022-11-15T00:10:40;99981.22;;;9.96;75.76
74633;BME280;63139;52.018;8.552;2022-11-15T00:13:29;99978.03;;;10.01;75.58
74633;BME280;63139;52.018;8.552;2022-11-15T00:16:16;99977.88;;;10.02;74.80
74633;BME280;63139;52.018;8.552;2022-11-15T00:19:02;99983.47;;;10.07;75.21
74633;BME280;63139;52.018;8.552;2022-11-15T00:21:49;99984.75;;;10.11;75.21
74633;BME280;63139;52.018;8.552;2022-11-15T00:24:35;99975.66;;;10.14;75.17
74633;BME280;63139;52.018;8.552;2022-11-15T00:27:21;99976.13;;;10.18;74.42
74633;BME280;63139;52.018;8.552;2022-11-15T00:30:10;99969.69;;;10.20;75.22
74633;BME280;63139;52.018;8.552;2022-11-15T00:33:01;99974.41;;;10.25;75.44
74633;BME280;63139;52.018;8.552;2022-11-15T00:35:48;99976.72;;;10.28;75.43
74633;BME280;63139;52.018;8.552;2022-11-15T00:38:34;99968.22;;;10.32;75.13
74633;BME280;63139;52.018;8.552;2022-11-15T00:41:21;99971.34;;;10.36;75.67
74633;BME280;63139;52.018;8.552;2022-11-15T00:44:07;99965.69;;;10.39;75.88
74633;BME280;63139;52.018;8.552;2022-11-15T00:46:55;99958.22;;;10.42;75.95
74633;BME280;63139;52.018;8.552;2022-11-15T00:49:41;99957.84;;;10.45;75.73
74633;BME280;63139;52.018;8.552;2022-11-15T00:52:28;99963.44;;;10.50;75.99
74633;BME280;63139;52.018;8.552;2022-11-15T00:55:15;99954.13;;;10.55;75.80
74633;BME280;63139;52.018;8.552;2022-11-15T00:58:02;99953.78;;;10.58;76.06
74633;BME280;63139;52.018;8.552;2022-11-15T01:00:48;99942.63;;;10.62;76.32
74633;BME280;63139;52.018;8.552;2022-11-15T01:03:38;99949.03;;;10.68;76.26
74633;BME280;63139;52.018;8.552;2022-11-15T01:06:24;99942.38;;;10.72;76.54
74633;BME280;63139;52.018;8.552;2022-11-15T01:09:10;99935.91;;;10.74;76.33
74633;BME280;63139;52.018;8.552;2022-11-15T01:11:56;99930.22;;;10.77;76.42
74633;BME280;63139;52.018;8.552;2022-11-15T01:14:43;99930.69;;;10.81;76.65
74633;BME280;63139;52.018;8.552;2022-11-15T01:17:29;99928.66;;;10.83;76.51
74633;BME280;63139;52.018;8.552;2022-11-15T01:20:17;99929.97;;;10.87;76.76
74633;BME280;63139;52.018;8.552;2022-11-15T01:23:04;99919.81;;;10.90;76.96
74633;BME280;63139;52.018;8.552;2022-11-15T01:25:50;99918.63;;;10.93;76.87
74633;BME280;63139;52.018;8.552;2022-11-15T01:28:37;99918.88;;;10.98;76.99
74633;BME280;63139;52.018;8.552;2022-11-15T01:31:24;99913.22;;;11.01;77.02
74633;BME280;63139;52.018;8.552;2022-11-15T01:34:10;99914.47;;;11.05;77.24
74633;BME280;63139;52.018;8.552;2022-11-15T01:36:58;99909.66;;;11.09;76.91
74633;BME280;63139;52.018;8.552;2022-11-15T01:39:45;99905.81;;;11.11;77.10
74633;BME280;63139;52.018;8.552;2022-11-15T01:42:31;99898.31;;;11.15;77.10
74633;BME280;63139;52.018;8.552;2022-11-15T01:45:17;99886.53;;;11.17;77.08
74633;BME280;63139;52.018;8.552;2022-11-15T01:48:03;99895.09;;;11.19;77.31
74633;BME280;63139;52.018;8.552;2022-11-15T01:50:50;99891.25;;;11.22;77.21
74633;BME280;63139;52.018;8.552;2022-11-15T01:53:40;99889.25;;;11.24;77.38
74633;BME280;63139;52.018;8.552;2022-11-15T01:56:30;99891.91;;;11.24;77.59
74633;BME280;63139;52.018;8.552;2022-11-15T01:59:19;99881.00;;;11.19;77.34
74633;BME280;63139;52.018;8.552;2022-11-15T02:02:05;99883.53;;;11.06;77.69
74633;BME280;63139;52.018;8.552;2022-11-15T02:04:52;99880.06;;;10.90;78.23
74633;BME280;63139;52.018;8.552;2022-11-15T02:07:39;99884.03;;;10.80;78.53
74633;BME280;63139;52.018;8.552;2022-11-15T02:10:27;99881.00;;;10.68;79.02
74633;BME280;63139;52.018;8.552;2022-11-15T02:13:14;99878.47;;;10.60;79.30
74633;BME280;63139;52.018;8.552;2022-11-15T02:16:06;99883.31;;;10.57;80.02
74633;BME280;63139;52.018;8.552;2022-11-15T02:18:57;99870.91;;;10.57;80.15
74633;BME280;63139;52.018;8.552;2022-11-15T02:21:49;99874.97;;;10.60;80.50
74633;BME280;63139;52.018;8.552;2022-11-15T02:25:01;99870.81;;;10.65;81.02
74633;BME280;63139;52.018;8.552;2022-11-15T02:28:06;99877.84;;;10.73;81.21
74633;BME280;63139;52.018;8.552;2022-11-15T02:31:03;99865.50;;;10.80;81.29
74633;BME280;63139;52.018;8.552;2022-11-15T02:33:57;99865.41;;;10.88;80.84
74633;BME280;63139;52.018;8.552;2022-11-15T02:36:52;99862.81;;;10.95;81.18
74633;BME280;63139;52.018;8.552;2022-11-15T02:39:49;99870.47;;;11.04;81.01
74633;BME280;63139;52.018;8.552;2022-11-15T02:42:40;99869.34;;;11.13;80.75
74633;BME280;63139;52.018;8.552;2022-11-15T02:45:56;99864.75;;;11.22;80.64
74633;BME280;63139;52.018;8.552;2022-11-15T02:48:48;99867.66;;;11.27;80.23
74633;BME280;63139;52.018;8.552;2022-11-15T02:51:35;99871.19;;;11.34;80.09
74633;BME280;63139;52.018;8.552;2022-11-15T02:54:24;99877.78;;;11.38;80.07
74633;BME280;63139;52.018;8.552;2022-11-15T02:57:13;99871.06;;;11.42;80.03
74633;BME280;63139;52.018;8.552;2022-11-15T03:00:08;99865.41;;;11.45;79.94
74633;BME280;63139;52.018;8.552;2022-11-15T03:03:10;99859.94;;;11.47;79.98
74633;BME280;63139;52.018;8.552;2022-11-15T03:06:05;99854.06;;;11.51;79.82
74633;BME280;63139;52.018;8.552;2022-11-15T03:09:02;99852.03;;;11.53;79.75
74633;BME280;63139;52.018;8.552;2022-11-15T03:11:56;99857.16;;;11.55;80.02
74633;BME280;63139;52.018;8.552;2022-11-15T03:14:53;99850.84;;;11.56;79.64
74633;BME280;63139;52.018;8.552;2022-11-15T03:17:46;99852.47;;;11.57;79.74
74633;BME280;63139;52.018;8.552;2022-11-15T03:20:34;99850.63;;;11.57;79.51
74633;BME280;63139;52.018;8.552;2022-11-15T03:23:24;99847.16;;;11.57;79.39
74633;BME280;63139;52.018;8.552;2022-11-15T03:26:14;99854.28;;;11.56;79.35
74633;BME280;63139;52.018;8.552;2022-11-15T03:29:04;99846.34;;;11.56;79.36
74633;BME280;63139;52.018;8.552;2022-11-15T03:31:56;99857.75;;;11.57;79.35
74633;BME280;63139;52.018;8.552;2022-11-15T03:34:47;99854.28;;;11.56;79.42
74633;BME280;63139;52.018;8.552;2022-11-15T03:37:40;99854.09;;;11.58;79.47
74633;BME280;63139;52.018;8.552;2022-11-15T03:40:33;99853.50;;;11.56;79.38
74633;BME280;63139;52.018;8.552;2022-11-15T03:43:27;99851.63;;;11.56;79.48
74633;BME280;63139;52.018;8.552;2022-11-15T03:46:21;99847.97;;;11.57;79.41
74633;BME280;63139;52.018;8.552;2022-11-15T03:49:12;99854.94;;;11.58;79.49
74633;BME280;63139;52.018;8.552;2022-11-15T03:52:03;99849.63;;;11.58;79.81
74633;BME280;63139;52.018;8.552;2022-11-15T03:54:52;99858.41;;;11.59;79.48
74633;BME280;63139;52.018;8.552;2022-11-15T03:57:40;99858.22;;;11.60;79.47
74633;BME280;63139;52.018;8.552;2022-11-15T04:00:26;99860.69;;;11.62;79.34
74633;BME280;63139;52.018;8.552;2022-11-15T04:03:13;99864.53;;;11.59;79.58
74633;BME280;63139;52.018;8.552;2022-11-15T04:05:59;99864.91;;;11.56;79.78
74633;BME280;63139;52.018;8.552;2022-11-15T04:08:45;99860.63;;;11.55;79.56
74633;BME280;63139;52.018;8.552;2022-11-15T04:11:31;99860.00;;;11.53;79.74
74633;BME280;63139;52.018;8.552;2022-11-15T04:14:19;99859.16;;;11.53;79.51
74633;BME280;63139;52.018;8.552;2022-11-15T04:17:05;99860.16;;;11.52;79.54
74633;BME280;63139;52.018;8.552;2022-11-15T04:19:51;99858.72;;;11.49;79.66
74633;BME280;63139;52.018;8.552;2022-11-15T04:22:55;99855.06;;;11.50;79.98
74633;BME280;63139;52.018;8.552;2022-11-15T04:26:01;99853.41;;;11.49;79.80
74633;BME280;63139;52.018;8.552;2022-11-15T04:28:48;99854.44;;;11.48;79.82
74633;BME280;63139;52.018;8.552;2022-11-15T04:31:54;99856.47;;;11.46;79.85
74633;BME280;63139;52.018;8.552;2022-11-15T04:34:40;99852.16;;;11.45;79.80
74633;BME280;63139;52.018;8.552;2022-11-15T04:37:26;99850.16;;;11.47;79.91
74633;BME280;63139;52.018;8.552;2022-11-15T04:40:12;99857.28;;;11.47;79.82
74633;BME280;63139;52.018;8.552;2022-11-15T04:42:58;99867.06;;;11.46;79.76
74633;BME280;63139;52.018;8.552;2022-11-15T04:45:48;99874.19;;;11.46;79.82
74633;BME280;63139;52.018;8.552;2022-11-15T04:48:35;99864.41;;;11.46;79.88
74633;BME280;63139;52.018;8.552;2022-11-15T04:51:21;99865.84;;;11.49;79.67
74633;BME280;63139;52.018;8.552;2022-11-15T04:54:07;99864.41;;;11.46;79.93
74633;BME280;63139;52.018;8.552;2022-11-15T04:56:54;99864.84;;;11.50;79.62
74633;BME280;63139;52.018;8.552;2022-11-15T04:59:40;99860.75;;;11.47;80.00
74633;BME280;63139;52.018;8.552;2022-11-15T05:02:26;99860.34;;;11.50;79.74
74633;BME280;63139;52.018;8.552;2022-11-15T05:05:34;99863.81;;;11.51;79.62
74633;BME280;63139;52.018;8.552;2022-11-15T05:08:20;99862.41;;;11.48;79.71
74633;BME280;63139;52.018;8.552;2022-11-15T05:11:06;99853.81;;;11.46;79.82
74633;BME280;63139;52.018;8.552;2022-11-15T05:13:52;99860.94;;;11.46;79.73
74633;BME280;63139;52.018;8.552;2022-11-15T05:16:39;99854.81;;;11.45;79.55
74633;BME280;63139;52.018;8.552;2022-11-15T05:19:25;99852.34;;;11.44;79.76
74633;BME280;63139;52.018;8.552;2022-11-15T05:22:13;99851.53;;;11.43;79.67
74633;BME280;63139;52.018;8.552;2022-11-15T05:24:59;99852.34;;;11.44;79.67
74633;BME280;63139;52.018;8.552;2022-11-15T05:27:45;99855.19;;;11.42;79.58
74633;BME280;63139;52.018;8.552;2022-11-15T05:30:31;99862.94;;;11.44;79.69
74633;BME280;63139;52.018;8.552;2022-11-15T05:33:18;99855.81;;;11.44;79.64
74633;BME280;63139;52.018;8.552;2022-11-15T05:36:09;99853.81;;;11.46;79.50
74633;BME280;63139;52.018;8.552;2022-11-15T05:38:59;99861.56;;;11.48;79.59
74633;BME280;63139;52.018;8.552;2022-11-15T05:41:48;99848.94;;;11.50;79.58
74633;BME280;63139;52.018;8.552;2022-11-15T05:44:36;99857.72;;;11.50;79.64
74633;BME280;63139;52.018;8.552;2022-11-15T05:47:24;99844.44;;;11.50;79.63
74633;BME280;63139;52.018;8.552;2022-11-15T05:50:12;99849.75;;;11.50;79.60
74633;BME280;63139;52.018;8.552;2022-11-15T05:53:01;99848.94;;;11.50;79.72
74633;BME280;63139;52.018;8.552;2022-11-15T05:55:51;99852.97;;;11.46;79.90
74633;BME280;63139;52.018;8.552;2022-11-15T05:58:37;99844.84;;;11.47;79.71
74633;BME280;63139;52.018;8.552;2022-11-15T06:01:24;99843.84;;;11.48;79.91
74633;BME280;63139;52.018;8.552;2022-11-15T06:04:11;99843.63;;;11.50;79.95
74633;BME280;63139;52.018;8.552;2022-11-15T06:06:59;99845.28;;;11.51;79.67
74633;BME280;63139;52.018;8.552;2022-11-15T06:09:45;99835.31;;;11.53;79.68
74633;BME280;63139;52.018;8.552;2022-11-15T06:12:33;99840.25;;;11.56;79.69
74633;BME280;63139;52.018;8.552;2022-11-15T06:15:19;99827.59;;;11.58;79.49
74633;BME280;63139;52.018;8.552;2022-11-15T06:18:05;99832.91;;;11.58;79.51
74633;BME280;63139;52.018;8.552;2022-11-15T06:20:51;99834.53;;;11.59;79.54
74633;BME280;63139;52.018;8.552;2022-11-15T06:23:38;99834.72;;;11.57;79.52
74633;BME280;63139;52.018;8.552;2022-11-15T06:26:24;99839.03;;;11.58;79.76
74633;BME280;63139;52.018;8.552;2022-11-15T06:29:11;99833.91;;;11.57;79.65
74633;BME280;63139;52.018;8.552;2022-11-15T06:31:58;99839.03;;;11.58;79.69
74633;BME280;63139;52.018;8.552;2022-11-15T06:34:44;99841.66;;;11.58;79.51
74633;BME280;63139;52.018;8.552;2022-11-15T06:37:30;99845.97;;;11.59;79.33
74633;BME280;63139;52.018;8.552;2022-11-15T06:40:16;99848.63;;;11.59;79.56
74633;BME280;63139;52.018;8.552;2022-11-15T06:43:03;99847.63;;;11.60;79.69
74633;BME280;63139;52.018;8.552;2022-11-15T06:45:51;99847.44;;;11.62;79.75
74633;BME280;63139;52.018;8.552;2022-11-15T06:48:38;99861.28;;;11.64;79.46
74633;BME280;63139;52.018;8.552;2022-11-15T06:51:24;99852.59;;;11.70;79.52
74633;BME280;63139;52.018;8.552;2022-11-15T06:54:10;99856.88;;;11.71;79.52
74633;BME280;63139;52.018;8.552;2022-11-15T06:56:57;99864.31;;;11.76;79.09
74633;BME280;63139;52.018;8.552;2022-11-15T06:59:43;99856.16;;;11.77;79.30
74633;BME280;63139;52.018;8.552;2022-11-15T07:02:31;99867.00;;;11.82;78.99
74633;BME280;63139;52.018;8.552;2022-11-15T07:05:17;99866.25;;;11.88;78.68
74633;BME280;63139;52.018;8.552;2022-11-15T07:08:04;99868.75;;;11.96;78.38
74633;BME280;63139;52.018;8.552;2022-11-15T07:10:50;99863.63;;;11.95;78.69
74633;BME280;63139;52.018;8.552;2022-11-15T07:13:36;99868.56;;;11.98;78.55
74633;BME280;63139;52.018;8.552;2022-11-15T07:16:23;99862.25;;;11.99;78.33
74633;BME280;63139;52.018;8.552;2022-11-15T07:19:10;99864.31;;;12.03;78.50
74633;BME280;63139;52.018;8.552;2022-11-15T07:21:56;99862.75;;;12.16;77.95
74633;BME280;63139;52.018;8.552;2022-11-15T07:24:42;99869.38;;;12.26;77.76
74633;BME280;63139;52.018;8.552;2022-11-15T07:27:29;99871.94;;;12.41;77.33
74633;BME280;63139;52.018;8.552;2022-11-15T07:30:15;99873.44;;;12.50;77.13
74633;BME280;63139;52.018;8.552;2022-11-15T07:33:01;99876.13;;;12.57;76.90
74633;BME280;63139;52.018;8.552;2022-11-15T07:35:49;99881.81;;;12.54;76.42
74633;BME280;63139;52.018;8.552;2022-11-15T07:38:35;99885.28;;;12.54;76.88
74633;BME280;63139;52.018;8.552;2022-11-15T07:41:27;99879.38;;;12.52;77.04
74633;BME280;63139;52.018;8.552;2022-11-15T07:44:13;99883.44;;;12.55;76.84
74633;BME280;63139;52.018;8.552;2022-11-15T07:46:59;99880.63;;;12.63;76.17
74633;BME280;63139;52.018;8.552;2022-11-15T07:49:46;99879.03;;;12.68;76.15
74633;BME280;63139;52.018;8.552;2022-11-15T07:52:34;99883.97;;;12.71;76.16
74633;BME280;63139;52.018;8.552;2022-11-15T07:55:21;99885.19;;;12.75;76.04
74633;BME280;63139;52.018;8.552;2022-11-15T07:58:08;99882.16;;;12.78;75.99
74633;BME280;63139;52.018;8.552;2022-11-15T08:00:55;99885.63;;;12.79;75.74
74633;BME280;63139;52.018;8.552;2022-11-15T08:03:41;99882.53;;;12.75;75.89
74633;BME280;63139;52.018;8.552;2022-11-15T08:06:27;99888.25;;;12.72;75.65
74633;BME280;63139;52.018;8.552;2022-11-15T08:09:15;99883.97;;;12.71;75.83
74633;BME280;63139;52.018;8.552;2022-11-15T08:12:01;99879.25;;;12.67;75.59
74633;BME280;63139;52.018;8.552;2022-11-15T08:14:47;99879.63;;;12.64;75.45
74633;BME280;63139;52.018;8.552;2022-11-15T08:17:34;99880.44;;;12.64;75.75
74633;BME280;63139;52.018;8.552;2022-11-15T08:20:20;99868.38;;;12.62;75.25
74633;BME280;63139;52.018;8.552;2022-11-15T08:23:07;99874.09;;;12.59;75.82
74633;BME280;63139;52.018;8.552;2022-11-15T08:26:00;99876.53;;;12.60;75.89
74633;BME280;63139;52.018;8.552;2022-11-15T08:28:47;99871.47;;;12.65;75.79
74633;BME280;63139;52.018;8.552;2022-11-15T08:31:34;99871.69;;;12.70;75.96
74633;BME280;63139;52.018;8.552;2022-11-15T08:34:21;99875.38;;;12.76;75.61
74633;BME280;63139;52.018;8.552;2022-11-15T08:37:07;99865.19;;;12.79;75.51
74633;BME280;63139;52.018;8.552;2022-11-15T08:39:53;99875.19;;;12.77;75.23
74633;BME280;63139;52.018;8.552;2022-11-15T08:42:41;99867.63;;;12.74;75.59
74633;BME280;63139;52.018;8.552;2022-11-15T08:45:27;99870.88;;;12.70;75.80
74633;BME280;63139;52.018;8.552;2022-11-15T08:48:13;99876.59;;;12.67;76.08
74633;BME280;63139;52.018;8.552;2022-11-15T08:50:59;99877.44;;;12.74;75.45
74633;BME280;63139;52.018;8.552;2022-11-15T08:53:46;99873.16;;;12.79;75.48
74633;BME280;63139;52.018;8.552;2022-11-15T08:56:32;99863.97;;;12.82;75.16
74633;BME280;63139;52.018;8.552;2022-11-15T08:59:19;99871.16;;;12.81;74.94
74633;BME280;63139;52.018;8.552;2022-11-15T09:02:06;99869.91;;;12.84;75.19
74633;BME280;63139;52.018;8.552;2022-11-15T09:04:53;99865.22;;;12.86;74.89
74633;BME280;63139;52.018;8.552;2022-11-15T09:07:39;99870.34;;;12.88;74.88
74633;BME280;63139;52.018;8.552;2022-11-15T09:10:25;99869.75;;;12.92;74.92
74633;BME280;63139;52.018;8.552;2022-11-15T09:13:11;99867.72;;;12.94;74.29
74633;BME280;63139;52.018;8.552;2022-11-15T09:16:00;99865.47;;;12.98;74.49
74633;BME280;63139;52.018;8.552;2022-11-15T09:18:47;99867.72;;;13.01;74.38
74633;BME280;63139;52.018;8.552;2022-11-15T09:21:33;99856.28;;;13.00;72.96
74633;BME280;63139;52.018;8.552;2022-11-15T09:24:20;99864.88;;;13.02;73.63
74633;BME280;63139;52.018;8.552;2022-11-15T09:27:06;99863.66;;;13.05;73.43
74633;BME280;63139;52.018;8.552;2022-11-15T09:29:52;99868.97;;;13.05;73.31
74633;BME280;63139;52.018;8.552;2022-11-15T09:32:39;99869.78;;;13.05;73.55
74633;BME280;63139;52.018;8.552;2022-11-15T09:35:26;99866.75;;;13.08;73.68
74633;BME280;63139;52.018;8.552;2022-11-15T09:38:12;99872.69;;;13.10;73.56
74633;BME280;63139;52.018;8.552;2022-11-15T09:41:17;99871.03;;;13.09;72.82
74633;BME280;63139;52.018;8.552;2022-11-15T09:44:19;99867.97;;;13.12;72.40
74633;BME280;63139;52.018;8.552;2022-11-15T09:47:28;99870.06;;;13.17;72.18
74633;BME280;63139;52.018;8.552;2022-11-15T09:50:32;99879.88;;;13.16;72.21
74633;BME280;63139;52.018;8.552;2022-11-15T09:53:01;99872.94;;;13.15;72.32
74633;BME280;63139;52.018;8.552;2022-11-15T09:55:34;99866.59;;;13.16;72.03
74633;BME280;63139;52.018;8.552;2022-11-15T09:58:12;99875.19;;;13.18;72.17
74633;BME280;63139;52.018;8.552;2022-11-15T10:00:47;99861.91;;;13.18;71.79
74633;BME280;63139;52.018;8.552;2022-11-15T10:03:25;99872.13;;;13.21;71.27
74633;BME280;63139;52.018;8.552;2022-11-15T10:05:57;99871.94;;;13.23;71.67
74633;BME280;63139;52.018;8.552;2022-11-15T10:08:47;99864.78;;;13.24;71.34
74633;BME280;63139;52.018;8.552;2022-11-15T10:11:19;99852.94;;;13.26;71.24
74633;BME280;63139;52.018;8.552;2022-11-15T10:14:08;99844.72;;;13.28;70.68
74633;BME280;63139;52.018;8.552;2022-11-15T10:16:52;99846.19;;;13.30;70.47
74633;BME280;63139;52.018;8.552;2022-11-15T10:19:34;99853.75;;;13.33;70.21
74633;BME280;63139;52.018;8.552;2022-11-15T10:22:16;99846.19;;;13.37;69.87
74633;BME280;63139;52.018;8.552;2022-11-15T10:24:46;99830.66;;;13.34;69.16
74633;BME280;63139;52.018;8.552;2022-11-15T10:27:16;99835.34;;;13.38;69.27
74633;BME280;63139;52.018;8.552;2022-11-15T10:29:46;99829.84;;;13.40;67.96
74633;BME280;63139;52.018;8.552;2022-11-15T10:32:16;99822.47;;;13.42;68.21
74633;BME280;63139;52.018;8.552;2022-11-15T10:34:45;99817.13;;;13.42;68.50
74633;BME280;63139;52.018;8.552;2022-11-15T10:37:27;99805.50;;;13.43;67.28
74633;BME280;63139;52.018;8.552;2022-11-15T10:40:06;99808.78;;;13.45;67.30
74633;BME280;63139;52.018;8.552;2022-11-15T10:42:34;99809.78;;;13.50;67.90
74633;BME280;63139;52.018;8.552;2022-11-15T10:45:02;99803.25;;;13.53;67.67
74633;BME280;63139;52.018;8.552;2022-11-15T10:47:49;99807.13;;;13.57;66.05
74633;BME280;63139;52.018;8.552;2022-11-15T10:50:29;99799.56;;;13.60;65.06
74633;BME280;63139;52.018;8.552;2022-11-15T10:53:01;99795.06;;;13.61;64.96
74633;BME280;63139;52.018;8.552;2022-11-15T10:55:31;99796.09;;;13.67;65.65
74633;BME280;63139;52.018;8.552;2022-11-15T10:58:03;99787.72;;;13.70;66.16
74633;BME280;63139;52.018;8.552;2022-11-15T11:00:34;99775.22;;;13.70;65.86
74633;BME280;63139;52.018;8.552;2022-11-15T11:03:05;99779.50;;;13.71;65.41
74633;BME280;63139;52.018;8.552;2022-11-15T11:05:35;99780.31;;;13.72;65.99
74633;BME280;63139;52.018;8.552;2022-11-15T11:08:22;99775.22;;;13.64;64.83
74633;BME280;63139;52.018;8.552;2022-11-15T11:10:54;99778.28;;;13.60;65.60
74633;BME280;63139;52.018;8.552;2022-11-15T11:13:29;99778.28;;;13.60;65.23
74633;BME280;63139;52.018;8.552;2022-11-15T11:16:17;99782.78;;;13.67;65.81
74633;BME280;63139;52.018;8.552;2022-11-15T11:18:51;99780.56;;;13.70;65.98
74633;BME280;63139;52.018;8.552;2022-11-15T11:21:25;99773.41;;;13.71;64.80
74633;BME280;63139;52.018;8.552;2022-11-15T11:24:06;99773.41;;;13.71;65.80
74633;BME280;63139;52.018;8.552;2022-11-15T11:26:42;99772.34;;;13.72;65.89
74633;BME280;63139;52.018;8.552;2022-11-15T11:29:22;99769.69;;;13.72;65.93
74633;BME280;63139;52.018;8.552;2022-11-15T11:32:00;99757.59;;;13.82;65.71
74633;BME280;63139;52.018;8.552;2022-11-15T11:34:40;99756.78;;;13.88;64.85
74633;BME280;63139;52.018;8.552;2022-11-15T11:37:19;99759.44;;;13.88;65.09
74633;BME280;63139;52.018;8.552;2022-11-15T11:39:56;99749.63;;;13.89;65.45
74633;BME280;63139;52.018;8.552;2022-11-15T11:42:42;99745.94;;;13.83;65.01
74633;BME280;63139;52.018;8.552;2022-11-15T11:45:16;99735.50;;;13.82;65.52
74633;BME280;63139;52.018;8.552;2022-11-15T11:47:47;99732.03;;;13.81;65.59
74633;BME280;63139;52.018;8.552;2022-11-15T11:50:18;99726.50;;;13.76;65.91
74633;BME280;63139;52.018;8.552;2022-11-15T11:52:55;99723.03;;;13.76;65.42
74633;BME280;63139;52.018;8.552;2022-11-15T11:55:33;99723.03;;;13.69;65.63
74633;BME280;63139;52.018;8.552;2022-11-15T11:58:12;99714.25;;;13.62;65.38
74633;BME280;63139;52.018;8.552;2022-11-15T12:00:43;99717.13;;;13.60;65.42
74633;BME280;63139;52.018;8.552;2022-11-15T12:03:18;99716.50;;;13.58;65.82
74633;BME280;63139;52.018;8.552;2022-11-15T12:05:52;99715.09;;;13.56;66.24
74633;BME280;63139;52.018;8.552;2022-11-15T12:08:28;99711.59;;;13.55;65.81
74633;BME280;63139;52.018;8.552;2022-11-15T12:11:03;99709.34;;;13.52;66.30
74633;BME280;63139;52.018;8.552;2022-11-15T12:13:32;99703.03;;;13.47;66.05
74633;BME280;63139;52.018;8.552;2022-11-15T12:16:07;99702.59;;;13.43;65.81
74633;BME280;63139;52.018;8.552;2022-11-15T12:18:37;99696.47;;;13.43;65.81
74633;BME280;63139;52.018;8.552;2022-11-15T12:21:08;99689.72;;;13.40;65.84
74633;BME280;63139;52.018;8.552;2022-11-15T12:23:45;99695.44;;;13.37;66.00
74633;BME280;63139;52.018;8.552;2022-11-15T12:26:18;99687.09;;;13.34;66.10
74633;BME280;63139;52.018;8.552;2022-11-15T12:28:52;99690.34;;;13.29;65.50
74633;BME280;63139;52.018;8.552;2022-11-15T12:31:38;99690.53;;;13.28;65.72
74633;BME280;63139;52.018;8.552;2022-11-15T12:34:28;99686.03;;;13.21;65.41
74633;BME280;63139;52.018;8.552;2022-11-15T12:36:57;99682.38;;;13.23;65.98
74633;BME280;63139;52.018;8.552;2022-11-15T12:42:40;99675.00;;;13.25;65.15
74633;BME280;63139;52.018;8.552;2022-11-15T12:45:25;99676.84;;;13.24;65.05
74633;BME280;63139;52.018;8.552;2022-11-15T12:47:53;99671.94;;;13.21;65.77
74633;BME280;63139;52.018;8.552;2022-11-15T12:53:26;99677.25;;;13.14;65.90
74633;BME280;63139;52.018;8.552;2022-11-15T12:56:21;99666.81;;;13.13;65.10
74633;BME280;63139;52.018;8.552;2022-11-15T12:58:56;99659.25;;;13.10;65.67
74633;BME280;63139;52.018;8.552;2022-11-15T13:01:55;99652.28;;;13.09;64.53
74633;BME280;63139;52.018;8.552;2022-11-15T13:04:27;99652.69;;;13.06;65.34
74633;BME280;63139;52.018;8.552;2022-11-15T13:06:57;99649.19;;;13.05;65.64
74633;BME280;63139;52.018;8.552;2022-11-15T13:09:53;99640.22;;;13.00;65.09
74633;BME280;63139;52.018;8.552;2022-11-15T13:12:50;99647.16;;;12.94;64.96
74633;BME280;63139;52.018;8.552;2022-11-15T13:15:53;99644.72;;;12.93;64.71
74633;BME280;63139;52.018;8.552;2022-11-15T13:18:35;99648.19;;;12.93;64.85
74633;BME280;63139;52.018;8.552;2022-11-15T13:21:16;99640.84;;;12.95;65.28
74633;BME280;63139;52.018;8.552;2022-11-15T13:24:02;99636.75;;;12.93;65.51
74633;BME280;63139;52.018;8.552;2022-11-15T13:26:31;99636.53;;;12.94;65.26
74633;BME280;63139;52.018;8.552;2022-11-15T13:28:59;99634.50;;;12.96;65.39
74633;BME280;63139;52.018;8.552;2022-11-15T13:31:34;99625.09;;;12.94;65.12
74633;BME280;63139;52.018;8.552;2022-11-15T13:34:12;99622.84;;;12.97;65.25
74633;BME280;63139;52.018;8.552;2022-11-15T13:37:01;99616.72;;;12.97;65.37
74633;BME280;63139;52.018;8.552;2022-11-15T13:39:31;99627.13;;;12.98;65.59
74633;BME280;63139;52.018;8.552;2022-11-15T13:42:00;99624.47;;;12.98;65.72
74633;BME280;63139;52.018;8.552;2022-11-15T13:44:30;99622.03;;;12.97;65.13
74633;BME280;63139;52.018;8.552;2022-11-15T13:47:04;99620.81;;;12.93;65.36
74633;BME280;63139;52.018;8.552;2022-11-15T13:49:34;99614.47;;;12.87;65.63
74633;BME280;63139;52.018;8.552;2022-11-15T13:52:04;99607.09;;;12.82;65.99
74633;BME280;63139;52.018;8.552;2022-11-15T13:54:35;99600.16;;;12.75;66.03
74633;BME280;63139;52.018;8.552;2022-11-15T13:57:05;99605.88;;;12.72;66.89
74633;BME280;63139;52.018;8.552;2022-11-15T13:59:45;99600.38;;;12.67;67.55
74633;BME280;63139;52.018;8.552;2022-11-15T14:02:17;99597.69;;;12.60;68.34
74633;BME280;63139;52.018;8.552;2022-11-15T14:04:48;99605.44;;;12.55;68.80
74633;BME280;63139;52.018;8.552;2022-11-15T14:07:19;99604.22;;;12.51;69.85
74633;BME280;63139;52.018;8.552;2022-11-15T14:09:48;99606.47;;;12.48;70.26
74633;BME280;63139;52.018;8.552;2022-11-15T14:12:29;99605.25;;;12.43;71.29
74633;BME280;63139;52.018;8.552;2022-11-15T14:14:59;99606.88;;;12.44;70.93
74633;BME280;63139;52.018;8.552;2022-11-15T14:17:37;99606.44;;;12.41;71.88
74633;BME280;63139;52.018;8.552;2022-11-15T14:20:25;99600.13;;;12.35;71.94
74633;BME280;63139;52.018;8.552;2022-11-15T14:22:55;99595.38;;;12.31;71.82
74633;BME280;63139;52.018;8.552;2022-11-15T14:25:24;99591.72;;;12.25;71.88
74633;BME280;63139;52.018;8.552;2022-11-15T14:28:14;99597.44;;;12.22;72.39
74633;BME280;63139;52.018;8.552;2022-11-15T14:30:44;99589.44;;;12.16;72.08
74633;BME280;63139;52.018;8.552;2022-11-15T14:33:22;99587.59;;;12.10;72.50
74633;BME280;63139;52.018;8.552;2022-11-15T14:35:51;99586.56;;;12.04;72.40
74633;BME280;63139;52.018;8.552;2022-11-15T14:38:19;99583.06;;;11.97;72.44